Andover, New York
Current Conditions -  °F | °C
As of 11:56 AM on Friday 24 Oct 2014 (Local Time) from KELZ Reporting Station
Clear Clear  
Wind Chill: 54°   Ceiling: Unl
Heat Index: 54°   Visibility: 10mi
Dew Point: 32°   Wind: 10mph
Humidity: 43%   Direction: 340°NNW
Pressure: 30"   Gusts: 20mph
Location:  42.16°N, 77.8°W
Report Text: KELZ 241556Z AUTO 34009G17KT 10SM CLR 12/00 A3000 RMK AO2 SLP163 T01220000
Loading
Personal Weather Stations






























Interactive Weather Map New forecast layout! Learn more

10-Day Weather Forecast

Advertisements
Track Severe Weather on mobile